Time;durP1;ratioP1;P1;durP2;ratioP2;P2;SDS_P1;SDS_P2;PMS_P1;PMS_P2;Temp;Humidity;BMP_temperature;BMP_pressure;BME280_temperature;BME280_humidity;BME280_pressure;Samples;Min_cycle;Max_cycle;Signal;HPM_P1;HPM_P2
2023/05/16 00:00:05;;;;;;;6.13;3.45;;;;;;;;;;10294836;28;20099;-69
2023/05/16 00:05:06;;;;;;;4.40;3.10;;;;;;;;;;10298536;28;20080;-69
2023/05/16 00:10:05;;;;;;;4.80;3.38;;;;;;;;;;10296356;28;20068;-69
2023/05/16 00:15:04;;;;;;;5.63;3.00;;;;;;;;;;10293653;28;20080;-69
2023/05/16 00:20:06;;;;;;;4.25;3.00;;;;;;;;;;10294884;28;20123;-69
2023/05/16 00:25:07;;;;;;;5.43;3.28;;;;;;;;;;10295827;28;20065;-69
2023/05/16 00:30:06;;;;;;;4.13;3.72;;;;;;;;;;10294767;28;20076;-69
2023/05/16 00:35:05;;;;;;;3.78;3.22;;;;;;;;;;10293078;28;20083;-69
2023/05/16 00:40:04;;;;;;;4.78;3.63;;;;;;;;;;10303548;28;20075;-69
2023/05/16 00:45:05;;;;;;;4.15;3.30;;;;;;;;;;10301713;28;20045;-69
2023/05/16 00:50:03;;;;;;;5.45;3.63;;;;;;;;;;10302227;28;20076;-69
2023/05/16 00:55:02;;;;;;;7.18;3.00;;;;;;;;;;10302507;28;20060;-69
2023/05/16 01:00:00;;;;;;;6.47;3.10;;;;;;;;;;10302410;28;20482;-69
2023/05/16 01:05:00;;;;;;;5.18;3.15;;;;;;;;;;10298449;28;20522;-69
2023/05/16 01:09:58;;;;;;;4.47;3.13;;;;;;;;;;10300554;28;20060;-69
2023/05/16 01:15:02;;;;;;;4.68;3.70;;;;;;;;;;10300878;28;20076;-69
2023/05/16 01:20:05;;;;;;;6.60;3.63;;;;;;;;;;10301992;28;20088;-69
2023/05/16 01:25:06;;;;;;;5.32;3.67;;;;;;;;;;10299686;28;20044;-69
2023/05/16 01:30:13;;;;;;;3.88;3.10;;;;;;;;;;10300648;28;20052;-69
2023/05/16 01:35:12;;;;;;;4.53;3.70;;;;;;;;;;10291213;28;20084;-69
2023/05/16 01:40:16;;;;;;;3.63;3.15;;;;;;;;;;10300579;28;20060;-71
2023/05/16 01:45:20;;;;;;;3.70;3.13;;;;;;;;;;10299691;28;20068;-69
2023/05/16 01:50:21;;;;;;;7.47;3.20;;;;;;;;;;10300903;28;20072;-70
2023/05/16 01:55:23;;;;;;;4.75;3.28;;;;;;;;;;10300863;28;20485;-69
2023/05/16 02:00:23;;;;;;;5.15;3.20;;;;;;;;;;10299279;28;20080;-69
2023/05/16 02:05:21;;;;;;;5.18;4.15;;;;;;;;;;10297737;28;20080;-69
2023/05/16 02:10:20;;;;;;;3.65;3.35;;;;;;;;;;10299442;28;20069;-69
2023/05/16 02:15:18;;;;;;;6.03;3.30;;;;;;;;;;10300847;28;20076;-69
2023/05/16 02:20:18;;;;;;;3.92;3.53;;;;;;;;;;10298658;28;20079;-68
2023/05/16 02:25:16;;;;;;;6.57;4.60;;;;;;;;;;10299041;28;20075;-70
2023/05/16 02:30:14;;;;;;;4.65;3.65;;;;;;;;;;10296393;28;20077;-69
2023/05/16 02:35:12;;;;;;;6.10;3.60;;;;;;;;;;10298817;28;20092;-69
2023/05/16 02:40:12;;;;;;;6.25;3.70;;;;;;;;;;10305993;28;20052;-69
2023/05/16 02:45:11;;;;;;;4.28;3.25;;;;;;;;;;10292709;28;20071;-69
2023/05/16 02:50:09;;;;;;;4.60;3.50;;;;;;;;;;10299001;28;20080;-70
2023/05/16 02:55:08;;;;;;;4.15;3.42;;;;;;;;;;10296019;28;20088;-69
2023/05/16 03:00:21;;;;;;;5.65;3.53;;;;;;;;;;10299196;28;20081;-69
2023/05/16 03:05:19;;;;;;;11.10;4.38;;;;;;;;;;10294398;28;20075;-69
2023/05/16 03:10:17;;;;;;;5.68;4.22;;;;;;;;;;10296151;28;20087;-69
2023/05/16 03:15:16;;;;;;;4.47;3.97;;;;;;;;;;10295531;28;20471;-69
2023/05/16 03:20:15;;;;;;;9.20;4.35;;;;;;;;;;10297631;28;20089;-70
2023/05/16 03:25:13;;;;;;;9.98;4.95;;;;;;;;;;10295221;28;20076;-69
2023/05/16 03:30:12;;;;;;;5.43;3.67;;;;;;;;;;10297239;28;20076;-69
2023/05/16 03:35:11;;;;;;;4.30;3.90;;;;;;;;;;10296461;28;20076;-69
2023/05/16 03:40:11;;;;;;;5.55;3.78;;;;;;;;;;10296529;28;20069;-69
2023/05/16 03:45:09;;;;;;;7.90;3.92;;;;;;;;;;10294427;28;20072;-68
2023/05/16 03:50:08;;;;;;;6.60;3.55;;;;;;;;;;10296571;28;20718;-70
2023/05/16 03:55:08;;;;;;;6.10;3.63;;;;;;;;;;10292382;28;20083;-70
2023/05/16 04:00:09;;;;;;;7.00;4.15;;;;;;;;;;10296703;28;20087;-72
2023/05/16 04:05:12;;;;;;;11.68;4.38;;;;;;;;;;10294441;28;20073;-71
2023/05/16 04:10:11;;;;;;;6.18;4.22;;;;;;;;;;10295264;28;20067;-71
2023/05/16 04:15:11;;;;;;;6.65;3.97;;;;;;;;;;10293211;28;20064;-71
2023/05/16 04:20:09;;;;;;;4.65;3.72;;;;;;;;;;10293291;28;20096;-71
2023/05/16 04:25:08;;;;;;;9.65;4.82;;;;;;;;;;10289687;28;20072;-71
2023/05/16 04:30:07;;;;;;;10.38;4.85;;;;;;;;;;10288176;28;20525;-70
2023/05/16 04:35:08;;;;;;;12.95;4.38;;;;;;;;;;10287594;28;20525;-70
2023/05/16 04:40:08;;;;;;;6.93;5.35;;;;;;;;;;10295491;28;20509;-71
2023/05/16 04:45:09;;;;;;;5.28;3.85;;;;;;;;;;10285886;28;20091;-68
2023/05/16 04:50:09;;;;;;;8.25;4.25;;;;;;;;;;10284738;28;20071;-68
2023/05/16 04:55:08;;;;;;;8.90;4.32;;;;;;;;;;10285888;28;20068;-69
2023/05/16 05:00:09;;;;;;;8.32;4.03;;;;;;;;;;10287998;28;20083;-68
2023/05/16 05:05:09;;;;;;;24.50;17.17;;;;;;;;;;10286998;28;20068;-70
2023/05/16 05:10:08;;;;;;;9.55;5.70;;;;;;;;;;10295166;28;20513;-70
2023/05/16 05:15:07;;;;;;;8.88;4.47;;;;;;;;;;10288253;28;20080;-70
2023/05/16 05:20:07;;;;;;;7.07;4.97;;;;;;;;;;10294611;28;20080;-69
2023/05/16 05:25:07;;;;;;;5.45;4.35;;;;;;;;;;10298291;28;20068;-71
2023/05/16 05:30:06;;;;;;;10.60;5.50;;;;;;;;;;10301688;28;20076;-70
2023/05/16 05:35:06;;;;;;;5.00;4.45;;;;;;;;;;10298444;28;20072;-69
2023/05/16 05:40:04;;;;;;;9.25;4.68;;;;;;;;;;10295517;28;20072;-70
2023/05/16 05:45:05;;;;;;;6.28;4.32;;;;;;;;;;10298469;28;20073;-71
2023/05/16 05:50:04;;;;;;;8.02;5.15;;;;;;;;;;10297622;28;20065;-71
2023/05/16 05:55:03;;;;;;;13.13;4.50;;;;;;;;;;10293884;28;20111;-70
2023/05/16 06:00:01;;;;;;;12.88;6.47;;;;;;;;;;10293960;28;20069;-70
2023/05/16 06:05:06;;;;;;;14.75;6.35;;;;;;;;;;10296445;28;20064;-71
2023/05/16 06:10:07;;;;;;;10.70;5.07;;;;;;;;;;10294358;28;20078;-71
2023/05/16 06:15:06;;;;;;;11.40;5.47;;;;;;;;;;10298469;28;20068;-71
2023/05/16 06:20:06;;;;;;;6.93;3.65;;;;;;;;;;10297575;28;20095;-69
2023/05/16 06:25:05;;;;;;;5.43;4.20;;;;;;;;;;10285945;28;20530;-69
2023/05/16 06:30:05;;;;;;;8.30;4.88;;;;;;;;;;10294259;28;20145;-69
2023/05/16 06:35:03;;;;;;;4.95;4.03;;;;;;;;;;10293669;28;20072;-71
2023/05/16 06:40:04;;;;;;;12.30;4.18;;;;;;;;;;10293965;28;20076;-69
2023/05/16 06:45:02;;;;;;;9.68;4.18;;;;;;;;;;10288990;28;20067;-70
2023/05/16 06:50:00;;;;;;;12.82;4.47;;;;;;;;;;10294055;28;20064;-69
2023/05/16 06:54:59;;;;;;;7.25;4.60;;;;;;;;;;10294712;28;20077;-69
2023/05/16 06:59:58;;;;;;;11.57;4.80;;;;;;;;;;10296819;28;20076;-69
2023/05/16 07:04:57;;;;;;;13.80;4.30;;;;;;;;;;10297948;28;20479;-69
2023/05/16 07:09:55;;;;;;;13.23;4.78;;;;;;;;;;10296478;28;20064;-68
2023/05/16 07:14:53;;;;;;;14.50;5.32;;;;;;;;;;10299408;28;20079;-69
2023/05/16 07:19:53;;;;;;;13.70;4.20;;;;;;;;;;10298392;28;20096;-69
2023/05/16 07:24:53;;;;;;;13.40;5.28;;;;;;;;;;10296534;28;20087;-70
2023/05/16 07:29:51;;;;;;;7.45;4.47;;;;;;;;;;10296927;28;20068;-68
2023/05/16 07:34:49;;;;;;;9.55;5.15;;;;;;;;;;10295639;28;20161;-68
2023/05/16 07:39:49;;;;;;;8.50;4.60;;;;;;;;;;10294511;28;20473;-69
2023/05/16 07:44:47;;;;;;;15.05;5.00;;;;;;;;;;10288582;28;20536;-69
2023/05/16 07:49:45;;;;;;;11.77;5.38;;;;;;;;;;10296516;28;20083;-69
2023/05/16 07:54:45;;;;;;;13.65;4.93;;;;;;;;;;10295148;28;20073;-68
2023/05/16 07:59:45;;;;;;;15.88;4.70;;;;;;;;;;10297039;28;20060;-68
2023/05/16 08:04:44;;;;;;;8.32;4.57;;;;;;;;;;10295110;28;20468;-69
2023/05/16 08:09:42;;;;;;;7.13;4.30;;;;;;;;;;10294323;28;20065;-68
2023/05/16 08:14:41;;;;;;;6.28;3.80;;;;;;;;;;10295938;28;20568;-69
2023/05/16 08:19:40;;;;;;;12.50;5.25;;;;;;;;;;10299985;28;20084;-69
2023/05/16 08:24:38;;;;;;;9.93;4.95;;;;;;;;;;10292485;28;20051;-68
2023/05/16 08:29:37;;;;;;;5.93;4.15;;;;;;;;;;10293252;28;20064;-68
2023/05/16 08:34:35;;;;;;;14.77;5.15;;;;;;;;;;10295899;28;20076;-68
2023/05/16 08:39:35;;;;;;;13.07;5.35;;;;;;;;;;10295268;28;20498;-68
2023/05/16 08:44:34;;;;;;;10.63;5.32;;;;;;;;;;10292054;28;20474;-68
2023/05/16 08:49:34;;;;;;;15.82;4.63;;;;;;;;;;10295932;28;20087;-69
2023/05/16 08:54:32;;;;;;;7.88;4.18;;;;;;;;;;10298453;28;20092;-69
2023/05/16 08:59:32;;;;;;;6.75;3.70;;;;;;;;;;10303318;28;20071;-69
2023/05/16 09:04:31;;;;;;;6.68;3.55;;;;;;;;;;10308129;28;20045;-69
2023/05/16 09:09:30;;;;;;;14.63;4.47;;;;;;;;;;10303825;28;20064;-68
2023/05/16 09:14:28;;;;;;;7.03;4.35;;;;;;;;;;10301816;28;20087;-69
2023/05/16 09:19:32;;;;;;;8.40;4.28;;;;;;;;;;10300924;28;20095;-68
2023/05/16 09:24:31;;;;;;;12.77;4.30;;;;;;;;;;10299730;28;20084;-69
2023/05/16 09:29:29;;;;;;;12.93;4.55;;;;;;;;;;10299399;28;20071;-68
2023/05/16 09:34:29;;;;;;;6.75;3.80;;;;;;;;;;10302057;28;20084;-68
2023/05/16 09:39:27;;;;;;;11.55;4.63;;;;;;;;;;10301652;28;20076;-68
2023/05/16 09:44:25;;;;;;;10.52;4.63;;;;;;;;;;10301745;28;20498;-69
2023/05/16 09:49:24;;;;;;;8.27;3.75;;;;;;;;;;10301325;28;20064;-69
2023/05/16 09:54:32;;;;;;;6.15;4.78;;;;;;;;;;10299274;28;20536;-69
2023/05/16 09:59:30;;;;;;;10.30;4.13;;;;;;;;;;10294488;28;20072;-68
2023/05/16 10:04:29;;;;;;;8.15;5.03;;;;;;;;;;10295602;28;20064;-68
2023/05/16 10:09:27;;;;;;;12.00;4.13;;;;;;;;;;10297965;28;20056;-68
2023/05/16 10:14:27;;;;;;;9.52;4.05;;;;;;;;;;10300985;28;20072;-69
2023/05/16 10:19:25;;;;;;;10.85;4.25;;;;;;;;;;10299555;28;20506;-68
2023/05/16 10:24:29;;;;;;;8.35;4.10;;;;;;;;;;10298618;28;20087;-69
2023/05/16 10:29:28;;;;;;;10.23;5.03;;;;;;;;;;10297841;28;20516;-68
2023/05/16 10:34:37;;;;;;;11.07;4.07;;;;;;;;;;10297769;28;20517;-69
2023/05/16 10:39:36;;;;;;;7.15;3.45;;;;;;;;;;10299668;28;20071;-69
2023/05/16 10:44:38;;;;;;;6.68;3.90;;;;;;;;;;10304400;28;20486;-69
2023/05/16 10:49:41;;;;;;;9.57;3.90;;;;;;;;;;10298431;28;20474;-70
2023/05/16 10:54:40;;;;;;;10.57;4.07;;;;;;;;;;10298806;28;20064;-70
2023/05/16 10:59:43;;;;;;;8.95;4.63;;;;;;;;;;10297388;28;20064;-70
2023/05/16 11:04:49;;;;;;;9.57;3.70;;;;;;;;;;10297956;28;20402;-70
2023/05/16 11:09:53;;;;;;;11.77;3.63;;;;;;;;;;10296153;28;20091;-70
2023/05/16 11:14:51;;;;;;;;;;;;;;;;;;10295973;28;20074;-69
2023/05/16 11:19:51;;;;;;;6.80;3.97;;;;;;;;;;10298019;28;19982;-69
2023/05/16 11:24:53;;;;;;;9.75;3.75;;;;;;;;;;10297222;28;20064;-69
2023/05/16 11:29:52;;;;;;;6.78;3.75;;;;;;;;;;10296307;28;20489;-70
2023/05/16 11:34:53;;;;;;;6.03;3.70;;;;;;;;;;10295541;28;20076;-70
2023/05/16 11:39:51;;;;;;;9.70;4.45;;;;;;;;;;10296713;28;20076;-71
2023/05/16 11:44:51;;;;;;;11.43;3.90;;;;;;;;;;10297760;28;20061;-69
2023/05/16 11:49:50;;;;;;;9.00;3.55;;;;;;;;;;10295749;28;20077;-69
2023/05/16 11:54:53;;;;;;;9.55;3.83;;;;;;;;;;10295162;28;20076;-69
2023/05/16 11:59:53;;;;;;;11.60;4.10;;;;;;;;;;10296860;28;20465;-69
2023/05/16 12:04:52;;;;;;;11.43;4.15;;;;;;;;;;10294720;28;20068;-69
2023/05/16 12:09:53;;;;;;;15.18;4.55;;;;;;;;;;10295536;28;20087;-69
2023/05/16 12:14:52;;;;;;;8.50;3.25;;;;;;;;;;10296108;28;20088;-69
2023/05/16 12:19:50;;;;;;;11.25;3.28;;;;;;;;;;10294482;28;20083;-69
2023/05/16 12:24:48;;;;;;;13.80;4.65;;;;;;;;;;10293403;28;20080;-69
2023/05/16 12:29:48;;;;;;;12.18;4.63;;;;;;;;;;10298682;28;20091;-70
2023/05/16 12:34:49;;;;;;;7.97;3.38;;;;;;;;;;10303855;28;20106;-70
2023/05/16 12:39:48;;;;;;;9.18;3.50;;;;;;;;;;10303120;28;20068;-70
2023/05/16 12:44:47;;;;;;;16.25;4.82;;;;;;;;;;10303161;28;20064;-69
2023/05/16 12:49:46;;;;;;;15.18;4.25;;;;;;;;;;10297982;28;20068;-69
2023/05/16 12:54:44;;;;;;;8.52;3.72;;;;;;;;;;10301711;28;20073;-69
2023/05/16 12:59:43;;;;;;;8.98;3.83;;;;;;;;;;10302120;28;20072;-69
2023/05/16 13:04:42;;;;;;;11.82;4.20;;;;;;;;;;10303439;28;20071;-69
2023/05/16 13:09:40;;;;;;;11.25;3.92;;;;;;;;;;10300882;28;20057;-69
2023/05/16 13:14:39;;;;;;;10.55;3.47;;;;;;;;;;10300272;28;20075;-69
2023/05/16 13:19:41;;;;;;;9.45;4.40;;;;;;;;;;10301994;28;20084;-69
2023/05/16 13:24:40;;;;;;;9.43;3.25;;;;;;;;;;10300371;28;20067;-69
2023/05/16 13:29:39;;;;;;;10.73;3.05;;;;;;;;;;10300857;28;20064;-69
2023/05/16 13:34:37;;;;;;;6.82;4.00;;;;;;;;;;10301619;28;20096;-70
2023/05/16 13:39:37;;;;;;;8.48;4.00;;;;;;;;;;10300640;28;20085;-70
2023/05/16 13:44:35;;;;;;;14.68;4.95;;;;;;;;;;10313487;28;20478;-70
2023/05/16 13:49:33;;;;;;;23.70;20.23;;;;;;;;;;10297768;28;20103;-69
2023/05/16 13:54:32;;;;;;;8.90;4.03;;;;;;;;;;10301720;28;20064;-70
2023/05/16 13:59:32;;;;;;;6.10;3.47;;;;;;;;;;10300829;28;20329;-70
2023/05/16 14:04:50;;;;;;;13.10;4.45;;;;;;;;;;10300906;28;20080;-70
2023/05/16 14:09:48;;;;;;;13.65;4.88;;;;;;;;;;10296715;28;20064;-68
2023/05/16 14:14:47;;;;;;;12.18;4.00;;;;;;;;;;10300720;28;20095;-68
2023/05/16 14:19:46;;;;;;;13.00;4.78;;;;;;;;;;10294199;28;20098;-68
2023/05/16 14:24:44;;;;;;;9.90;4.50;;;;;;;;;;10297283;28;20102;-68
2023/05/16 14:29:42;;;;;;;7.60;3.60;;;;;;;;;;10303248;28;20071;-69
2023/05/16 14:34:42;;;;;;;13.10;5.70;;;;;;;;;;10296196;28;20068;-70
2023/05/16 14:39:40;;;;;;;11.57;4.05;;;;;;;;;;10299045;28;20095;-68
2023/05/16 14:44:38;;;;;;;7.72;4.10;;;;;;;;;;10303956;28;20502;-69
2023/05/16 14:49:37;;;;;;;14.55;5.82;;;;;;;;;;10295287;28;20067;-69
2023/05/16 14:54:36;;;;;;;16.10;5.82;;;;;;;;;;10290105;28;20064;-71
2023/05/16 14:59:35;;;;;;;15.18;6.60;;;;;;;;;;10301004;28;20080;-69
2023/05/16 15:04:33;;;;;;;13.68;4.53;;;;;;;;;;10293975;28;20068;-68
2023/05/16 15:09:31;;;;;;;27.42;5.80;;;;;;;;;;10293361;28;20072;-68
2023/05/16 15:14:31;;;;;;;15.40;5.80;;;;;;;;;;10292771;28;20080;-68
2023/05/16 15:19:29;;;;;;;17.48;6.28;;;;;;;;;;10293729;28;20137;-69
2023/05/16 15:24:28;;;;;;;11.93;4.85;;;;;;;;;;10292689;28;20072;-70
2023/05/16 15:29:26;;;;;;;12.70;4.53;;;;;;;;;;10294323;28;20475;-69
2023/05/16 15:34:27;;;;;;;16.65;5.60;;;;;;;;;;10288604;28;20072;-69
2023/05/16 15:39:25;;;;;;;16.52;4.57;;;;;;;;;;10293163;28;20509;-69
2023/05/16 15:44:23;;;;;;;11.45;4.35;;;;;;;;;;10297562;28;20072;-67
2023/05/16 15:49:22;;;;;;;10.88;3.92;;;;;;;;;;10293747;28;20072;-69
2023/05/16 15:54:22;;;;;;;11.77;4.75;;;;;;;;;;10294552;28;20064;-69
2023/05/16 15:59:20;;;;;;;6.32;3.78;;;;;;;;;;10291490;28;20075;-67
2023/05/16 16:04:18;;;;;;;15.50;3.78;;;;;;;;;;10295942;28;20487;-67
2023/05/16 16:09:20;;;;;;;11.10;3.65;;;;;;;;;;10295914;28;20072;-67
2023/05/16 16:14:19;;;;;;;8.27;3.17;;;;;;;;;;10296845;28;20064;-68
2023/05/16 16:19:18;;;;;;;10.52;4.30;;;;;;;;;;10294416;28;20305;-69
2023/05/16 16:24:16;;;;;;;19.98;7.60;;;;;;;;;;10291161;28;20072;-68
2023/05/16 16:29:14;;;;;;;19.13;7.88;;;;;;;;;;10302663;28;20474;-68
2023/05/16 16:34:14;;;;;;;15.18;6.80;;;;;;;;;;10285537;28;20364;-68
2023/05/16 16:39:12;;;;;;;12.60;5.05;;;;;;;;;;10289621;28;20072;-67
2023/05/16 16:44:10;;;;;;;13.80;5.30;;;;;;;;;;10287621;28;20067;-67
2023/05/16 16:49:09;;;;;;;13.82;4.63;;;;;;;;;;10290604;28;20068;-68
2023/05/16 16:54:10;;;;;;;18.70;5.25;;;;;;;;;;10288080;28;20068;-67
2023/05/16 16:59:11;;;;;;;14.85;5.43;;;;;;;;;;10290832;28;20080;-67
2023/05/16 17:04:09;;;;;;;19.45;3.80;;;;;;;;;;10287636;28;20060;-68
2023/05/16 17:09:12;;;;;;;14.30;5.10;;;;;;;;;;10290084;28;20073;-68
2023/05/16 17:14:13;;;;;;;9.88;5.05;;;;;;;;;;10291030;28;20080;-67
2023/05/16 17:19:11;;;;;;;13.50;5.85;;;;;;;;;;10301254;28;20092;-68
2023/05/16 17:24:11;;;;;;;12.00;4.72;;;;;;;;;;10297461;28;20081;-68
2023/05/16 17:29:09;;;;;;;16.73;4.82;;;;;;;;;;10304961;28;20076;-68
2023/05/16 17:34:09;;;;;;;17.00;5.68;;;;;;;;;;10298493;28;20036;-68
2023/05/16 17:39:09;;;;;;;14.85;4.00;;;;;;;;;;10297698;28;20068;-68
2023/05/16 17:44:08;;;;;;;10.43;4.40;;;;;;;;;;10297691;28;20083;-68
2023/05/16 17:49:06;;;;;;;12.30;5.55;;;;;;;;;;10294952;28;20083;-68
2023/05/16 17:54:07;;;;;;;10.40;3.90;;;;;;;;;;10296603;28;20056;-68
2023/05/16 17:59:05;;;;;;;10.65;3.85;;;;;;;;;;10302417;28;20517;-67
2023/05/16 18:04:05;;;;;;;8.05;3.28;;;;;;;;;;10295813;28;20083;-68
2023/05/16 18:09:05;;;;;;;4.53;3.00;;;;;;;;;;10299641;28;20547;-68
2023/05/16 18:14:04;;;;;;;10.23;3.88;;;;;;;;;;10291408;28;20072;-68
2023/05/16 18:19:04;;;;;;;9.02;3.45;;;;;;;;;;10292945;28;20080;-67
2023/05/16 18:24:02;;;;;;;8.23;3.80;;;;;;;;;;10295770;28;20800;-67
2023/05/16 18:29:01;;;;;;;7.68;3.28;;;;;;;;;;10290907;28;20076;-67
2023/05/16 18:34:01;;;;;;;12.07;3.45;;;;;;;;;;10290115;28;20068;-67
2023/05/16 18:38:59;;;;;;;3.67;2.78;;;;;;;;;;10289059;28;20076;-67
2023/05/16 18:43:58;;;;;;;11.43;3.10;;;;;;;;;;10291301;28;20148;-67
2023/05/16 18:48:57;;;;;;;7.65;3.25;;;;;;;;;;10292320;28;20070;-68
2023/05/16 18:53:56;;;;;;;6.80;3.05;;;;;;;;;;10290380;28;20103;-67
2023/05/16 18:58:55;;;;;;;18.17;4.82;;;;;;;;;;10298407;28;20068;-67
2023/05/16 19:03:53;;;;;;;8.20;3.08;;;;;;;;;;10290614;28;20064;-66
2023/05/16 19:08:52;;;;;;;6.88;3.25;;;;;;;;;;10293996;28;20064;-67
2023/05/16 19:13:52;;;;;;;6.43;3.05;;;;;;;;;;10291973;28;20068;-66
2023/05/16 19:18:50;;;;;;;8.70;2.95;;;;;;;;;;10291357;28;20080;-66
2023/05/16 19:23:48;;;;;;;5.07;2.90;;;;;;;;;;10292059;28;20068;-67
2023/05/16 19:28:49;;;;;;;8.10;2.78;;;;;;;;;;10291408;28;20071;-66
2023/05/16 19:33:48;;;;;;;6.93;3.50;;;;;;;;;;10295588;28;20064;-66
2023/05/16 19:38:47;;;;;;;7.57;2.90;;;;;;;;;;10291266;28;20079;-68
2023/05/16 19:43:45;;;;;;;8.23;2.50;;;;;;;;;;10291647;28;20072;-66
2023/05/16 19:48:43;;;;;;;6.15;3.30;;;;;;;;;;10288883;28;20076;-67
2023/05/16 19:53:44;;;;;;;7.35;3.03;;;;;;;;;;10289841;28;20067;-68
2023/05/16 19:58:43;;;;;;;6.07;2.72;;;;;;;;;;10290416;28;20083;-69
2023/05/16 20:03:41;;;;;;;4.55;2.70;;;;;;;;;;10289908;28;20068;-68
2023/05/16 20:08:39;;;;;;;5.43;2.38;;;;;;;;;;10291823;28;20081;-68
2023/05/16 20:13:39;;;;;;;4.65;2.10;;;;;;;;;;10289356;28;20079;-68
2023/05/16 20:18:37;;;;;;;6.05;2.22;;;;;;;;;;10288999;28;20505;-68
2023/05/16 20:23:38;;;;;;;5.07;2.63;;;;;;;;;;10291833;28;20065;-67
2023/05/16 20:28:36;;;;;;;5.53;2.05;;;;;;;;;;10294863;28;20072;-66
2023/05/16 20:33:35;;;;;;;5.60;2.60;;;;;;;;;;10294144;28;20073;-68
2023/05/16 20:38:34;;;;;;;5.15;2.05;;;;;;;;;;10286624;28;20077;-68
2023/05/16 20:43:32;;;;;;;2.92;2.13;;;;;;;;;;10287172;28;20075;-67
2023/05/16 20:48:30;;;;;;;4.55;2.30;;;;;;;;;;10288742;28;20072;-68
2023/05/16 20:53:30;;;;;;;8.50;2.20;;;;;;;;;;10300438;28;20564;-68
2023/05/16 20:58:28;;;;;;;2.88;1.58;;;;;;;;;;10302584;28;20076;-68
2023/05/16 21:03:26;;;;;;;3.40;2.03;;;;;;;;;;10302664;28;20075;-68
2023/05/16 21:08:24;;;;;;;2.50;1.70;;;;;;;;;;10303687;28;20068;-68
2023/05/16 21:13:24;;;;;;;4.97;2.22;;;;;;;;;;10302379;28;20072;-68
2023/05/16 21:18:22;;;;;;;2.33;1.70;;;;;;;;;;10301197;28;20088;-67
2023/05/16 21:23:21;;;;;;;3.15;1.88;;;;;;;;;;10300847;28;20083;-68
2023/05/16 21:28:19;;;;;;;3.42;1.95;;;;;;;;;;10302778;28;20083;-67
2023/05/16 21:33:19;;;;;;;2.35;2.10;;;;;;;;;;10300244;28;20086;-67
2023/05/16 21:38:17;;;;;;;4.38;1.92;;;;;;;;;;10301607;28;20076;-66
2023/05/16 21:43:15;;;;;;;12.88;2.90;;;;;;;;;;10302497;28;20084;-67
2023/05/16 21:48:13;;;;;;;3.42;2.20;;;;;;;;;;10300923;28;20076;-67
2023/05/16 21:53:13;;;;;;;2.88;1.95;;;;;;;;;;10301434;28;20068;-67
2023/05/16 21:58:11;;;;;;;2.88;2.22;;;;;;;;;;10298739;28;20082;-67
2023/05/16 22:03:10;;;;;;;3.13;2.28;;;;;;;;;;10295917;28;20069;-67
2023/05/16 22:08:08;;;;;;;4.90;2.38;;;;;;;;;;10299664;28;20065;-68
2023/05/16 22:13:08;;;;;;;3.20;2.78;;;;;;;;;;10300195;28;20068;-67
2023/05/16 22:18:06;;;;;;;2.50;2.22;;;;;;;;;;10299552;28;20076;-67
2023/05/16 22:23:04;;;;;;;5.50;2.85;;;;;;;;;;10297824;28;20068;-67
2023/05/16 22:28:02;;;;;;;6.72;3.00;;;;;;;;;;10297164;28;20514;-67
2023/05/16 22:33:02;;;;;;;5.65;2.42;;;;;;;;;;10301053;28;20063;-68
2023/05/16 22:38:01;;;;;;;5.03;2.50;;;;;;;;;;10300006;28;20479;-67
2023/05/16 22:43:00;;;;;;;4.47;2.70;;;;;;;;;;10297422;28;20087;-67
2023/05/16 22:47:58;;;;;;;7.00;2.75;;;;;;;;;;10299608;28;20099;-68
2023/05/16 22:52:57;;;;;;;6.50;2.05;;;;;;;;;;10299640;28;20073;-67
2023/05/16 22:57:58;;;;;;;6.28;2.67;;;;;;;;;;10297393;28;20493;-68
2023/05/16 23:02:57;;;;;;;8.77;2.90;;;;;;;;;;10299011;28;20072;-67
2023/05/16 23:07:55;;;;;;;8.05;2.63;;;;;;;;;;10297662;28;20064;-67
2023/05/16 23:12:55;;;;;;;2.97;2.78;;;;;;;;;;10298294;28;20456;-67
2023/05/16 23:17:53;;;;;;;6.72;3.15;;;;;;;;;;10292667;28;20075;-68
2023/05/16 23:22:51;;;;;;;4.75;2.38;;;;;;;;;;10297510;28;20079;-68
2023/05/16 23:27:49;;;;;;;6.35;2.90;;;;;;;;;;10297470;28;20095;-68
2023/05/16 23:32:50;;;;;;;2.55;2.22;;;;;;;;;;10296711;28;20468;-68
2023/05/16 23:37:48;;;;;;;4.40;2.72;;;;;;;;;;10296601;28;20083;-68
2023/05/16 23:42:46;;;;;;;3.53;2.60;;;;;;;;;;10296492;28;20101;-68
2023/05/16 23:47:44;;;;;;;4.78;2.45;;;;;;;;;;10295194;28;20074;-68
2023/05/16 23:52:44;;;;;;;3.33;2.60;;;;;;;;;;10297788;28;20087;-68
2023/05/16 23:57:42;;;;;;;9.18;3.58;;;;;;;;;;10296544;28;20048;-68
